createdAt,value
2018-12-06T00:00:23.697Z,8.00
2018-12-06T00:03:11.383Z,5.63
2018-12-06T00:05:59.532Z,8.07
2018-12-06T00:08:47.196Z,7.90
2018-12-06T00:11:34.746Z,8.97
2018-12-06T00:14:22.580Z,5.90
2018-12-06T00:17:10.416Z,7.57
2018-12-06T00:19:58.004Z,7.27
2018-12-06T00:22:45.833Z,6.67
2018-12-06T00:25:33.368Z,6.70
2018-12-06T00:28:21.255Z,5.23
2018-12-06T00:31:08.924Z,6.43
2018-12-06T00:33:56.667Z,7.97
2018-12-06T00:36:44.556Z,6.57
2018-12-06T00:39:32.113Z,6.97
2018-12-06T00:42:19.689Z,6.13
2018-12-06T00:45:07.678Z,5.90
2018-12-06T00:47:55.244Z,5.07
2018-12-06T00:50:42.775Z,5.47
2018-12-06T00:53:30.633Z,6.77
2018-12-06T00:56:19.392Z,6.30
2018-12-06T00:59:07.258Z,6.10
2018-12-06T01:01:55.155Z,7.43
2018-12-06T01:04:43.089Z,6.07
2018-12-06T01:07:31.047Z,6.97
2018-12-06T01:10:18.886Z,5.67
2018-12-06T01:13:06.809Z,7.63
2018-12-06T01:15:54.356Z,7.47
2018-12-06T01:18:42.271Z,7.63
2018-12-06T01:21:29.839Z,6.73
2018-12-06T01:24:17.644Z,7.70
2018-12-06T01:27:05.584Z,8.00
2018-12-06T01:29:53.153Z,7.47
2018-12-06T01:32:40.775Z,7.23
2018-12-06T01:35:28.595Z,6.63
2018-12-06T01:37:57.120Z,4.90
2018-12-06T01:40:25.798Z,6.07
2018-12-06T01:43:13.363Z,8.87
2018-12-06T01:46:01.613Z,6.00
2018-12-06T01:48:49.537Z,7.43
2018-12-06T01:51:37.079Z,5.80
2018-12-06T01:54:24.940Z,5.50
2018-12-06T01:57:12.903Z,7.70
2018-12-06T02:00:00.448Z,7.47
2018-12-06T02:02:29.434Z,8.67
2018-12-06T02:04:58.272Z,6.63
2018-12-06T02:07:46.083Z,8.03
2018-12-06T04:12:23.383Z,13.17
2018-12-06T04:15:11.068Z,14.30
2018-12-06T04:17:59.021Z,11.20
2018-12-06T04:20:46.989Z,16.70
2018-12-06T04:23:34.588Z,12.77
2018-12-06T04:26:22.189Z,15.53
2018-12-06T04:29:10.191Z,14.50
2018-12-06T04:31:57.877Z,11.57
2018-12-06T04:34:26.468Z,15.90
2018-12-06T04:37:14.463Z,14.27
2018-12-06T04:40:02.220Z,13.93
2018-12-06T04:42:50.104Z,12.57
2018-12-06T04:45:37.786Z,14.97
2018-12-06T04:48:25.474Z,15.93
2018-12-06T04:51:13.304Z,15.90
2018-12-06T04:54:00.977Z,18.80
2018-12-06T04:56:48.988Z,20.50
2018-12-06T04:59:36.757Z,18.20
2018-12-06T05:02:25.162Z,20.77
2018-12-06T05:05:12.950Z,17.77
2018-12-06T05:08:00.773Z,19.20
2018-12-06T05:10:48.664Z,17.60
2018-12-06T05:13:36.706Z,23.30
2018-12-06T05:16:24.553Z,23.17
2018-12-06T05:19:12.245Z,18.20
2018-12-06T05:22:00.425Z,20.53
2018-12-06T05:24:47.975Z,21.27
2018-12-06T05:27:35.923Z,18.17
2018-12-06T05:30:23.844Z,18.53
2018-12-06T05:33:11.421Z,17.33
2018-12-06T05:35:59.134Z,19.93
2018-12-06T05:38:46.774Z,21.27
2018-12-06T05:41:35.150Z,22.93
2018-12-06T05:44:03.927Z,26.90
2018-12-06T05:46:51.614Z,26.07
2018-12-06T05:49:39.343Z,24.93
2018-12-06T05:52:26.933Z,22.90
2018-12-06T05:55:14.756Z,21.13
2018-12-06T05:58:02.380Z,20.83
2018-12-06T06:00:50.438Z,23.73
2018-12-06T06:03:38.032Z,26.40
2018-12-06T06:06:25.819Z,27.30
2018-12-06T06:09:13.524Z,20.57
2018-12-06T06:12:01.374Z,23.80
2018-12-06T06:14:49.301Z,20.33
2018-12-06T06:20:30.609Z,18.83
2018-12-06T06:23:18.498Z,18.07
2018-12-06T06:28:59.828Z,19.23
2018-12-06T06:31:47.170Z,18.73
2018-12-06T06:34:34.365Z,16.13
2018-12-06T06:37:21.989Z,19.27
2018-12-06T06:40:09.970Z,16.77
2018-12-06T06:42:57.585Z,18.10
2018-12-06T06:45:45.217Z,18.43
2018-12-06T06:48:33.044Z,18.03
2018-12-06T06:51:20.661Z,17.37
2018-12-06T06:54:08.237Z,14.57
2018-12-06T06:56:56.242Z,15.87
2018-12-06T06:59:43.949Z,15.10
2018-12-06T07:02:31.633Z,17.87
2018-12-06T07:05:19.545Z,20.53
2018-12-06T07:08:07.585Z,17.13
2018-12-06T07:10:55.535Z,16.37
2018-12-06T07:13:43.204Z,18.40
2018-12-06T07:16:30.789Z,16.63
2018-12-06T07:19:18.358Z,19.87
2018-12-06T07:22:05.933Z,19.13
2018-12-06T07:24:53.513Z,17.93
2018-12-06T07:27:41.505Z,16.60
2018-12-06T07:30:29.188Z,16.47
2018-12-06T07:33:16.785Z,15.47
2018-12-06T07:36:04.456Z,14.40
2018-12-06T07:38:52.141Z,16.27
2018-12-06T07:41:39.809Z,15.73
2018-12-06T07:44:08.368Z,16.63
2018-12-06T07:46:56.044Z,18.20
2018-12-06T07:49:44.325Z,16.83
2018-12-06T07:52:32.040Z,15.63
2018-12-06T07:55:19.641Z,15.77
2018-12-06T07:58:07.621Z,17.50
2018-12-06T08:00:48.320Z,16.83
2018-12-06T08:03:28.158Z,15.23
2018-12-06T08:06:08.841Z,16.60
2018-12-06T08:08:49.589Z,18.37
2018-12-06T08:11:30.124Z,16.20
2018-12-06T08:14:10.391Z,18.03
2018-12-06T08:19:33.953Z,16.67
2018-12-06T08:22:14.187Z,19.10
2018-12-06T08:24:54.852Z,15.03
2018-12-06T08:27:35.633Z,19.13
2018-12-06T08:30:16.290Z,14.10
2018-12-06T08:32:56.845Z,16.20
2018-12-06T08:35:37.582Z,17.00
2018-12-06T08:38:18.257Z,20.60
2018-12-06T08:40:58.150Z,17.00
2018-12-06T08:43:38.811Z,18.70
2018-12-06T08:46:19.141Z,15.83
2018-12-06T08:49:02.982Z,17.77
2018-12-06T08:51:41.250Z,18.27
2018-12-06T08:54:22.122Z,17.30
2018-12-06T08:57:02.150Z,17.70
2018-12-06T08:59:42.842Z,16.27
2018-12-06T09:02:23.379Z,17.07
2018-12-06T09:05:03.622Z,16.03
2018-12-06T09:07:44.018Z,14.77
2018-12-06T09:10:25.084Z,16.00
2018-12-06T09:13:05.348Z,18.00
2018-12-06T09:15:45.974Z,18.73
2018-12-06T09:18:26.574Z,16.40
2018-12-06T09:21:07.206Z,16.17
2018-12-06T09:23:47.576Z,17.70
2018-12-06T09:26:16.106Z,16.93
2018-12-06T09:29:03.778Z,18.10
2018-12-06T09:31:51.504Z,18.00
2018-12-06T09:34:39.194Z,18.47
2018-12-06T09:37:26.922Z,19.57
2018-12-06T09:40:14.605Z,17.67
2018-12-06T09:43:02.293Z,20.67
2018-12-06T09:48:43.886Z,17.60
2018-12-06T09:51:31.850Z,18.87
2018-12-06T09:54:19.689Z,19.00
2018-12-06T09:57:07.324Z,21.60
2018-12-06T10:02:49.093Z,18.47
2018-12-06T10:05:36.961Z,18.33
2018-12-06T10:08:24.906Z,18.00
2018-12-06T10:11:12.495Z,19.60
2018-12-06T10:14:00.181Z,20.07
2018-12-06T10:16:47.897Z,23.80
2018-12-06T10:19:35.569Z,19.17
2018-12-06T10:22:23.262Z,21.10
2018-12-06T10:25:11.295Z,19.13
2018-12-06T10:27:59.232Z,16.53
2018-12-06T10:30:46.934Z,19.07
2018-12-06T10:33:15.364Z,22.63
2018-12-06T10:36:03.053Z,22.60
2018-12-06T10:38:50.904Z,22.90
2018-12-06T10:41:38.841Z,21.70
2018-12-06T10:44:45.544Z,21.10
2018-12-06T10:47:33.566Z,23.70
2018-12-06T10:50:21.226Z,22.60
2018-12-06T10:53:09.020Z,22.03
2018-12-06T10:55:56.664Z,21.63
2018-12-06T11:01:57.515Z,18.67
2018-12-06T11:04:45.455Z,21.33
2018-12-06T11:07:33.150Z,19.37
2018-12-06T11:10:20.857Z,18.90
2018-12-06T11:13:08.461Z,19.37
2018-12-06T11:15:56.166Z,21.80
2018-12-06T11:18:43.981Z,21.53
2018-12-06T11:21:31.608Z,22.10
2018-12-06T11:24:19.480Z,20.40
2018-12-06T11:27:07.096Z,21.20
2018-12-06T11:29:54.796Z,18.80
2018-12-06T11:32:42.782Z,19.50
2018-12-06T11:35:30.470Z,21.90
2018-12-06T11:38:18.429Z,20.90
2018-12-06T11:41:06.407Z,30.60
2018-12-06T11:43:54.105Z,32.00
2018-12-06T11:46:41.808Z,18.10
2018-12-06T11:49:29.691Z,20.33
2018-12-06T11:52:17.402Z,21.87
2018-12-06T11:55:05.161Z,18.67
2018-12-06T12:00:46.754Z,20.73
2018-12-06T12:03:34.460Z,19.60
2018-12-06T12:06:22.147Z,21.48
2018-12-06T12:09:10.164Z,20.90
2018-12-06T12:11:58.103Z,20.70
2018-12-06T12:14:45.824Z,23.47
2018-12-06T12:17:33.445Z,20.57
2018-12-06T12:20:21.417Z,17.13
2018-12-06T12:23:09.118Z,19.27
2018-12-06T12:25:56.705Z,16.85
2018-12-06T12:28:45.004Z,18.55
2018-12-06T12:31:32.949Z,19.35
2018-12-06T12:34:20.557Z,17.77
2018-12-06T12:37:08.221Z,17.87
2018-12-06T12:39:55.813Z,18.17
2018-12-06T12:42:43.397Z,17.45
2018-12-06T12:45:31.080Z,17.90
2018-12-06T12:48:19.040Z,18.77
2018-12-06T12:51:06.833Z,19.50
2018-12-06T12:53:55.095Z,18.55
2018-12-06T12:56:23.761Z,15.83
2018-12-06T12:59:11.405Z,16.33
2018-12-06T13:01:59.377Z,14.00
2018-12-06T13:04:47.463Z,14.30
2018-12-06T13:07:35.652Z,15.23
2018-12-06T13:10:23.505Z,13.88
2018-12-06T13:12:52.228Z,13.85
2018-12-06T13:15:40.218Z,16.48
2018-12-06T13:18:09.485Z,12.80
2018-12-06T13:20:38.435Z,12.63
2018-12-06T13:23:26.501Z,14.98
2018-12-06T13:26:14.290Z,12.20
2018-12-06T13:29:02.013Z,12.68
2018-12-06T13:31:50.253Z,13.43
2018-12-06T13:34:37.952Z,10.93
2018-12-06T13:37:25.531Z,11.97
2018-12-06T13:39:54.102Z,12.30
2018-12-06T13:42:42.065Z,12.00
2018-12-06T13:45:29.814Z,12.98
2018-12-06T13:48:17.822Z,14.30
2018-12-06T13:51:05.569Z,11.93
2018-12-06T13:53:53.522Z,13.10
2018-12-06T13:56:41.321Z,12.68
2018-12-06T13:59:29.278Z,12.18
2018-12-06T14:02:17.005Z,13.88
2018-12-06T14:05:04.855Z,12.50
2018-12-06T14:07:52.445Z,12.53
2018-12-06T14:10:40.166Z,11.63
2018-12-06T14:13:28.242Z,12.25
2018-12-06T14:16:15.953Z,11.78
2018-12-06T14:19:05.516Z,11.50
2018-12-06T14:21:56.565Z,12.28
2018-12-06T14:24:44.404Z,12.23
2018-12-06T14:27:32.189Z,12.55
2018-12-06T14:30:19.877Z,13.62
2018-12-06T14:33:07.755Z,10.60
2018-12-06T14:35:55.531Z,10.45
2018-12-06T14:38:43.381Z,11.08
2018-12-06T14:41:31.122Z,11.95
2018-12-06T14:44:19.216Z,9.33
2018-12-06T14:47:06.966Z,12.68
2018-12-06T14:49:55.034Z,10.82
2018-12-06T14:52:42.733Z,10.93
2018-12-06T14:55:30.836Z,13.32
2018-12-06T14:58:18.580Z,9.68
2018-12-06T15:01:06.268Z,9.23
2018-12-06T15:03:54.081Z,8.23
2018-12-06T15:06:41.924Z,8.15
2018-12-06T15:09:29.913Z,8.53
2018-12-06T15:12:17.633Z,9.20
2018-12-06T15:15:05.562Z,7.22
2018-12-06T15:17:54.367Z,7.97
2018-12-06T15:20:42.053Z,7.45
2018-12-06T15:23:29.662Z,7.60
2018-12-06T15:26:17.493Z,7.92
2018-12-06T15:29:05.397Z,7.90
2018-12-06T15:31:53.224Z,8.18
2018-12-06T15:34:41.139Z,8.00
2018-12-06T15:37:29.338Z,8.03
2018-12-06T15:40:17.483Z,9.33
2018-12-06T15:43:05.497Z,8.35
2018-12-06T15:45:34.437Z,8.60
2018-12-06T15:48:22.061Z,8.40
2018-12-06T15:51:10.046Z,8.13
2018-12-06T15:53:58.025Z,9.55
2018-12-06T15:56:45.987Z,8.98
2018-12-06T15:59:33.697Z,16.77
2018-12-06T16:02:22.056Z,10.72
2018-12-06T16:05:09.882Z,9.68
2018-12-06T16:07:57.873Z,10.28
2018-12-06T16:10:45.756Z,10.85
2018-12-06T16:13:33.508Z,10.78
2018-12-06T16:16:02.328Z,12.23
2018-12-06T16:18:50.381Z,13.75
2018-12-06T16:21:38.166Z,12.13
2018-12-06T16:24:26.249Z,11.83
2018-12-06T16:27:13.924Z,10.58
2018-12-06T16:30:01.968Z,11.12
2018-12-06T16:32:49.736Z,12.60
2018-12-06T16:35:37.907Z,13.38
2018-12-06T16:38:25.590Z,12.20
2018-12-06T16:41:13.568Z,11.75
2018-12-06T16:44:01.717Z,10.40
2018-12-06T16:46:49.372Z,10.63
2018-12-06T16:49:37.077Z,11.03
2018-12-06T16:52:24.689Z,11.88
2018-12-06T16:55:12.633Z,20.97
2018-12-06T16:58:00.415Z,15.65
2018-12-06T17:00:48.405Z,12.53
2018-12-06T17:03:36.365Z,13.58
2018-12-06T17:06:24.320Z,11.83
2018-12-06T17:09:12.433Z,11.85
2018-12-06T17:12:00.046Z,11.08
2018-12-06T17:14:47.901Z,12.75
2018-12-06T17:17:35.833Z,13.20
2018-12-06T17:20:23.638Z,12.90
2018-12-06T17:23:11.441Z,12.65
2018-12-06T17:25:59.163Z,12.15
2018-12-06T17:28:27.819Z,71.30
2018-12-06T17:31:15.568Z,24.55
2018-12-06T17:34:03.603Z,15.05
2018-12-06T17:39:46.794Z,13.30
2018-12-06T17:45:29.034Z,11.10
2018-12-06T17:48:16.760Z,11.18
2018-12-06T17:51:04.468Z,11.22
2018-12-06T17:53:54.186Z,11.25
2018-12-06T17:56:23.042Z,11.05
2018-12-06T17:59:10.954Z,10.13
2018-12-06T18:01:59.024Z,11.68
2018-12-06T18:04:47.004Z,13.00
2018-12-06T18:07:35.007Z,14.90
2018-12-06T18:10:23.057Z,11.95
2018-12-06T18:13:11.090Z,12.45
2018-12-06T18:15:58.801Z,11.93
2018-12-06T18:18:46.648Z,13.00
2018-12-06T18:21:34.288Z,13.30
2018-12-06T18:24:22.110Z,11.83
2018-12-06T18:27:09.938Z,13.83
2018-12-06T18:29:58.228Z,17.30
2018-12-06T18:32:46.209Z,11.93
2018-12-06T18:35:34.207Z,15.75
2018-12-06T18:38:22.775Z,11.57
2018-12-06T18:41:10.557Z,12.80
2018-12-06T18:43:58.803Z,13.32
2018-12-06T18:46:46.728Z,14.50
2018-12-06T18:49:34.697Z,30.02
2018-12-06T18:52:22.557Z,73.33
2018-12-06T18:55:10.390Z,13.78
2018-12-06T18:57:58.541Z,33.73
2018-12-06T19:00:46.431Z,14.55
2018-12-06T19:03:34.131Z,15.28
2018-12-06T19:06:43.333Z,18.55
2018-12-06T19:09:31.054Z,14.90
2018-12-06T19:11:59.950Z,28.20
2018-12-06T19:14:48.126Z,15.53
2018-12-06T19:17:35.946Z,29.48
2018-12-06T19:20:24.067Z,19.80
2018-12-06T19:23:12.136Z,20.57
2018-12-06T19:25:59.875Z,17.07
2018-12-06T19:28:47.592Z,17.15
2018-12-06T19:31:38.350Z,19.15
2018-12-06T19:34:26.666Z,16.80
2018-12-06T19:37:18.965Z,16.25
2018-12-06T19:40:06.972Z,18.55
2018-12-06T19:42:54.996Z,18.98
2018-12-06T19:45:24.160Z,16.00
2018-12-06T19:47:53.727Z,19.40
2018-12-06T19:50:41.502Z,17.50
2018-12-06T19:53:29.177Z,18.77
2018-12-06T19:56:17.459Z,18.50
2018-12-06T19:59:05.703Z,17.45
2018-12-06T20:01:53.769Z,17.70
2018-12-06T20:04:41.626Z,14.95
2018-12-06T20:07:29.308Z,17.65
2018-12-06T20:10:17.017Z,18.20
2018-12-06T20:13:04.688Z,19.15
2018-12-06T20:15:52.831Z,22.27
2018-12-06T20:18:40.615Z,23.12
2018-12-06T20:21:09.657Z,17.95
2018-12-06T20:23:57.462Z,33.98
2018-12-06T20:26:45.414Z,15.58
2018-12-06T20:29:34.642Z,22.15
2018-12-06T20:32:22.946Z,15.70
2018-12-06T20:35:10.855Z,21.27
2018-12-06T20:37:58.672Z,15.90
2018-12-06T20:40:46.373Z,14.63
2018-12-06T20:43:34.181Z,15.60
2018-12-06T20:46:22.030Z,15.80
2018-12-06T20:49:09.700Z,17.37
2018-12-06T20:51:57.397Z,17.42
2018-12-06T20:54:45.065Z,17.62
2018-12-06T20:57:37.279Z,18.00
2018-12-06T21:00:22.891Z,17.90
2018-12-06T21:03:10.629Z,17.42
2018-12-06T21:05:58.288Z,16.10
2018-12-06T21:08:27.017Z,14.68
2018-12-06T21:11:14.851Z,14.70
2018-12-06T21:14:03.186Z,15.65
2018-12-06T21:16:51.241Z,14.38
2018-12-06T21:19:19.939Z,14.87
2018-12-06T21:22:08.029Z,13.38
2018-12-06T21:24:56.195Z,14.00
2018-12-06T21:27:43.909Z,11.45
2018-12-06T21:30:31.939Z,11.88
2018-12-06T21:33:21.293Z,13.40
2018-12-06T21:36:09.234Z,12.78
2018-12-06T21:38:56.871Z,11.10
2018-12-06T21:41:45.125Z,10.58
2018-12-06T21:44:53.453Z,10.55
2018-12-06T21:47:41.084Z,10.55
2018-12-06T21:50:28.687Z,9.13
2018-12-06T21:53:16.640Z,8.18
2018-12-06T21:56:04.573Z,7.62
2018-12-06T21:58:52.228Z,7.85
2018-12-06T22:01:40.456Z,8.58
2018-12-06T22:04:28.203Z,8.45
2018-12-06T22:07:15.885Z,8.43
2018-12-06T22:10:03.972Z,27.62
2018-12-06T22:12:51.690Z,9.58
2018-12-06T22:15:39.260Z,8.10
2018-12-06T22:18:26.839Z,9.18
2018-12-06T22:21:14.405Z,7.17
2018-12-06T22:24:02.442Z,8.15
2018-12-06T22:26:30.920Z,8.03
2018-12-06T22:29:18.602Z,6.72
2018-12-06T22:32:06.231Z,7.83
2018-12-06T22:34:53.854Z,6.83
2018-12-06T22:37:41.436Z,6.95
2018-12-06T22:40:29.157Z,7.92
2018-12-06T22:43:17.047Z,6.55
2018-12-06T22:46:04.778Z,7.67
2018-12-06T22:51:07.788Z,6.50
2018-12-06T22:53:55.900Z,7.85
2018-12-06T22:56:43.922Z,8.05
2018-12-06T22:59:31.959Z,6.75
2018-12-06T23:02:19.763Z,8.03
2018-12-06T23:05:07.725Z,7.83
2018-12-06T23:07:55.550Z,8.90
2018-12-06T23:13:37.289Z,8.53
2018-12-06T23:16:06.184Z,7.75
2018-12-06T23:18:53.881Z,7.47
2018-12-06T23:21:49.073Z,8.65
2018-12-06T23:24:36.838Z,7.00
2018-12-06T23:27:24.269Z,7.08
2018-12-06T23:30:12.122Z,7.08
2018-12-06T23:32:59.759Z,7.50
2018-12-06T23:35:47.362Z,6.62
2018-12-06T23:38:34.936Z,5.97
2018-12-06T23:41:22.872Z,7.08
2018-12-06T23:44:10.535Z,7.45
2018-12-06T23:46:58.922Z,7.17
2018-12-06T23:49:46.915Z,5.70
2018-12-06T23:52:34.661Z,5.72
2018-12-06T23:55:22.396Z,5.50
2018-12-06T23:58:09.976Z,5.20
